Terminal Aerodrome Forecast
Issued by NWS

Home | Current Version | Previous Version | Text Only | Print | Product List | Glossary On
Versions: 1 2 3 4 5 6 7 8 9 10 11 12 13 14 15 16 17 18 19
000
FTUS43 KMKX 251720
TAFUES
TAF
KUES 251720Z 2518/2618 18011G18KT P6SM FEW080 BKN250
     FM260000 17009KT P6SM BKN080
     FM260700 15009KT P6SM OVC040
     FM260900 15009KT P6SM VCSH OVC035
     FM261100 16008KT P6SM OVC025
     FM261400 17011KT P6SM -SHRA OVC015=

USA.gov is the U.S. government's official web portal to all federal, state and local government web resources and services.